Time;durP1;ratioP1;P1;durP2;ratioP2;P2;SDS_P1;SDS_P2;PMS_P1;PMS_P2;Temp;Humidity;BMP_temperature;BMP_pressure;BME280_temperature;BME280_humidity;BME280_pressure;Samples;Min_cycle;Max_cycle;Signal;HPM_P1;HPM_P2
2022/04/29 00:00:52;;;;;;;17.77;9.25;;;;;;;;;;6234692;23;20016;-44
2022/04/29 00:03:17;;;;;;;16.75;8.40;;;;;;;;;;6233627;23;20005;-44
2022/04/29 00:05:43;;;;;;;15.80;8.85;;;;;;;;;;6235881;23;20048;-43
2022/04/29 00:08:08;;;;;;;19.52;8.70;;;;;;;;;;6238377;23;20008;-44
2022/04/29 00:10:37;;;;;;;17.20;10.30;;;;;;;;;;6235621;23;20493;-45
2022/04/29 00:13:04;;;;;;;14.85;8.25;;;;;;;;;;6237345;23;20007;-43
2022/04/29 00:15:29;;;;;;;18.13;9.02;;;;;;;;;;6235462;23;20020;-48
2022/04/29 00:17:55;;;;;;;14.20;8.85;;;;;;;;;;6236398;23;20018;-45
2022/04/29 00:20:20;;;;;;;24.67;9.50;;;;;;;;;;6235853;23;20576;-45
2022/04/29 00:22:45;;;;;;;21.27;8.07;;;;;;;;;;6237334;23;20409;-44
2022/04/29 00:25:11;;;;;;;13.55;7.97;;;;;;;;;;6236585;23;20031;-43
2022/04/29 00:27:36;;;;;;;18.05;8.98;;;;;;;;;;6209696;23;20091;-45
2022/04/29 00:30:03;;;;;;;18.77;9.52;;;;;;;;;;6236661;23;20023;-44
2022/04/29 00:32:28;;;;;;;20.15;9.45;;;;;;;;;;6236197;23;20024;-44
2022/04/29 00:34:54;;;;;;;18.98;8.77;;;;;;;;;;6237027;23;20583;-43
2022/04/29 00:37:19;;;;;;;17.77;9.85;;;;;;;;;;6235782;23;20089;-44
2022/04/29 00:39:44;;;;;;;18.75;8.63;;;;;;;;;;6236439;23;20016;-43
2022/04/29 00:42:13;;;;;;;17.42;7.68;;;;;;;;;;6236256;23;20007;-43
2022/04/29 00:44:39;;;;;;;15.02;8.35;;;;;;;;;;6235627;23;20494;-43
2022/04/29 00:47:06;;;;;;;18.33;9.15;;;;;;;;;;6236799;23;20535;-43
2022/04/29 00:49:31;;;;;;;13.90;8.68;;;;;;;;;;6235030;23;20016;-43
2022/04/29 00:51:56;;;;;;;17.52;8.38;;;;;;;;;;6236552;23;20012;-42
2022/04/29 00:54:24;;;;;;;20.80;10.38;;;;;;;;;;6235218;23;20039;-43
2022/04/29 00:56:51;;;;;;;19.15;8.00;;;;;;;;;;6237658;23;20012;-43
2022/04/29 00:59:20;;;;;;;18.52;9.90;;;;;;;;;;6208472;23;20102;-44
2022/04/29 01:01:46;;;;;;;14.30;7.47;;;;;;;;;;6236360;23;20115;-42
2022/04/29 01:04:20;;;;;;;20.23;8.40;;;;;;;;;;6236166;23;20008;-43
2022/04/29 01:06:46;;;;;;;13.90;8.35;;;;;;;;;;6236184;23;20099;-44
2022/04/29 01:09:11;;;;;;;18.92;9.52;;;;;;;;;;6236525;23;20321;-41
2022/04/29 01:11:37;;;;;;;18.50;8.65;;;;;;;;;;6235491;23;20004;-42
2022/04/29 01:14:02;;;;;;;18.77;9.98;;;;;;;;;;6236071;23;20068;-44
2022/04/29 01:16:28;;;;;;;14.68;7.70;;;;;;;;;;6234947;23;20023;-44
2022/04/29 01:18:53;;;;;;;12.40;8.05;;;;;;;;;;6236341;23;20055;-45
2022/04/29 01:21:18;;;;;;;16.23;9.15;;;;;;;;;;6232952;23;20023;-42
2022/04/29 01:23:44;;;;;;;19.17;8.35;;;;;;;;;;6236715;23;20094;-43
2022/04/29 01:26:15;;;;;;;21.48;9.27;;;;;;;;;;6235481;23;20024;-44
2022/04/29 01:28:45;;;;;;;16.58;8.27;;;;;;;;;;6236595;23;20035;-43
2022/04/29 01:31:13;;;;;;;21.10;9.07;;;;;;;;;;6237574;23;20083;-43
2022/04/29 01:33:40;;;;;;;22.13;9.30;;;;;;;;;;6236990;23;20043;-42
2022/04/29 01:36:05;;;;;;;17.90;8.52;;;;;;;;;;6238190;23;20016;-46
2022/04/29 01:38:31;;;;;;;14.85;8.07;;;;;;;;;;6236356;23;20016;-42
2022/04/29 01:40:56;;;;;;;14.68;8.57;;;;;;;;;;6237815;23;20015;-42
2022/04/29 01:43:22;;;;;;;19.55;8.93;;;;;;;;;;6235059;23;20020;-43
2022/04/29 01:45:47;;;;;;;36.45;10.70;;;;;;;;;;6237032;23;20008;-42
2022/04/29 01:48:12;;;;;;;18.27;8.63;;;;;;;;;;6236315;23;20261;-43
2022/04/29 01:50:37;;;;;;;20.42;9.18;;;;;;;;;;6237015;23;20012;-43
2022/04/29 01:53:03;;;;;;;24.40;9.23;;;;;;;;;;6235738;23;20036;-43
2022/04/29 01:55:28;;;;;;;19.15;9.63;;;;;;;;;;6236302;23;20012;-43
2022/04/29 01:57:54;;;;;;;21.23;9.35;;;;;;;;;;6237321;23;20012;-42
2022/04/29 02:00:19;;;;;;;14.57;9.13;;;;;;;;;;6235364;23;20346;-43
2022/04/29 02:02:45;;;;;;;16.90;7.97;;;;;;;;;;6236536;23;20448;-43
2022/04/29 02:05:11;;;;;;;16.58;11.23;;;;;;;;;;6236645;23;20038;-43
2022/04/29 02:07:36;;;;;;;25.73;10.23;;;;;;;;;;6236205;23;20012;-46
2022/04/29 02:10:01;;;;;;;19.17;10.00;;;;;;;;;;6210838;23;20016;-42
2022/04/29 02:12:27;;;;;;;18.55;9.65;;;;;;;;;;6234750;23;20012;-43
2022/04/29 02:14:52;;;;;;;20.33;10.00;;;;;;;;;;6237769;23;20008;-42
2022/04/29 02:17:17;;;;;;;17.13;9.85;;;;;;;;;;6235476;23;20016;-44
2022/04/29 02:19:42;;;;;;;23.40;10.23;;;;;;;;;;6235629;23;20164;-44
2022/04/29 02:22:08;;;;;;;12.48;7.80;;;;;;;;;;6236725;23;20385;-43
2022/04/29 02:24:33;;;;;;;12.57;7.80;;;;;;;;;;6234306;23;20028;-42
2022/04/29 02:27:00;;;;;;;17.90;8.77;;;;;;;;;;6237289;23;20020;-45
2022/04/29 02:29:27;;;;;;;20.08;9.02;;;;;;;;;;6232437;23;20012;-45
2022/04/29 02:31:53;;;;;;;18.23;9.13;;;;;;;;;;6237184;23;20455;-43
2022/04/29 02:34:18;;;;;;;19.48;9.50;;;;;;;;;;6235206;23;20025;-44
2022/04/29 02:36:44;;;;;;;19.38;9.52;;;;;;;;;;6236341;23;20478;-44
2022/04/29 02:39:09;;;;;;;18.70;9.43;;;;;;;;;;6236458;23;20008;-43
2022/04/29 02:41:36;;;;;;;14.80;9.20;;;;;;;;;;6233552;23;20067;-43
2022/04/29 02:44:02;;;;;;;22.85;10.55;;;;;;;;;;6236551;23;20008;-42
2022/04/29 02:46:27;;;;;;;21.33;9.57;;;;;;;;;;6234802;23;20020;-43
2022/04/29 02:48:52;;;;;;;17.45;9.20;;;;;;;;;;6237200;23;20012;-45
2022/04/29 02:51:18;;;;;;;19.65;9.52;;;;;;;;;;6234638;23;20057;-44
2022/04/29 02:53:43;;;;;;;18.33;10.60;;;;;;;;;;6236624;23;20075;-43
2022/04/29 02:56:09;;;;;;;22.88;9.75;;;;;;;;;;6235088;23;20450;-43
2022/04/29 02:58:34;;;;;;;21.77;9.77;;;;;;;;;;6236953;23;20821;-42
2022/04/29 03:01:00;;;;;;;18.27;8.63;;;;;;;;;;6236107;23;20012;-43
2022/04/29 03:03:26;;;;;;;15.73;9.25;;;;;;;;;;6229302;23;20012;-43
2022/04/29 03:05:52;;;;;;;23.10;9.48;;;;;;;;;;6209372;23;20079;-42
2022/04/29 03:08:19;;;;;;;18.90;10.27;;;;;;;;;;6234996;23;20325;-43
2022/04/29 03:10:46;;;;;;;17.02;9.50;;;;;;;;;;6236348;23;20556;-44
2022/04/29 03:13:12;;;;;;;20.27;8.98;;;;;;;;;;6237477;23;20004;-42
2022/04/29 03:15:37;;;;;;;17.48;8.98;;;;;;;;;;6234937;23;20059;-42
2022/04/29 03:18:18;;;;;;;14.27;9.43;;;;;;;;;;6236362;23;20447;-44
2022/04/29 03:20:43;;;;;;;19.38;9.63;;;;;;;;;;6236228;23;20012;-42
2022/04/29 03:23:08;;;;;;;21.38;11.38;;;;;;;;;;6236775;23;20012;-43
2022/04/29 03:25:34;;;;;;;23.50;10.82;;;;;;;;;;6228050;23;20026;-43
2022/04/29 03:27:59;;;;;;;19.60;10.02;;;;;;;;;;6236431;23;20056;-45
2022/04/29 03:30:24;;;;;;;18.45;10.57;;;;;;;;;;6234142;23;20008;-43
2022/04/29 03:32:54;;;;;;;17.17;10.05;;;;;;;;;;6236544;23;20012;-42
2022/04/29 03:35:19;;;;;;;17.25;9.38;;;;;;;;;;6233584;23;20009;-42
2022/04/29 03:37:45;;;;;;;25.30;9.90;;;;;;;;;;6236297;23;20016;-43
2022/04/29 03:40:11;;;;;;;16.95;9.98;;;;;;;;;;6210733;23;20015;-42
2022/04/29 03:42:36;;;;;;;18.85;9.32;;;;;;;;;;6236062;23;20023;-43
2022/04/29 03:45:01;;;;;;;21.15;9.73;;;;;;;;;;6238284;23;20008;-44
2022/04/29 03:47:26;;;;;;;27.38;10.27;;;;;;;;;;6234595;23;20031;-43
2022/04/29 03:49:52;;;;;;;21.88;10.02;;;;;;;;;;6238913;23;20032;-43
2022/04/29 03:52:17;;;;;;;25.02;9.48;;;;;;;;;;6235138;23;20812;-42
2022/04/29 03:54:42;;;;;;;32.13;10.98;;;;;;;;;;6238312;23;20019;-43
2022/04/29 03:57:08;;;;;;;25.75;10.73;;;;;;;;;;6236005;23;20015;-43
2022/04/29 03:59:33;;;;;;;22.38;10.13;;;;;;;;;;6237089;23;20389;-43
2022/04/29 04:01:58;;;;;;;15.27;9.60;;;;;;;;;;6238307;23;20013;-42
2022/04/29 04:04:24;;;;;;;17.52;10.75;;;;;;;;;;6237083;23;20068;-43
2022/04/29 04:06:49;;;;;;;20.17;9.88;;;;;;;;;;6236822;23;20024;-42
2022/04/29 04:09:14;;;;;;;24.80;12.15;;;;;;;;;;6237813;23;20012;-43
2022/04/29 04:11:41;;;;;;;22.25;10.50;;;;;;;;;;6236199;23;20012;-42
2022/04/29 04:14:06;;;;;;;26.67;11.77;;;;;;;;;;6238291;23;20043;-42
2022/04/29 04:16:32;;;;;;;30.50;10.07;;;;;;;;;;6236844;23;20012;-42
2022/04/29 04:18:57;;;;;;;24.73;10.68;;;;;;;;;;6238291;23;20008;-43
2022/04/29 04:21:22;;;;;;;24.67;12.07;;;;;;;;;;6236311;23;20091;-42
2022/04/29 04:23:47;;;;;;;26.60;10.07;;;;;;;;;;6238251;23;20000;-44
2022/04/29 04:26:13;;;;;;;19.38;10.23;;;;;;;;;;6237546;23;20028;-43
2022/04/29 04:28:38;;;;;;;21.45;10.02;;;;;;;;;;6237433;23;20004;-44
2022/04/29 04:31:04;;;;;;;22.95;10.02;;;;;;;;;;6237064;23;20070;-44
2022/04/29 04:33:29;;;;;;;18.30;10.35;;;;;;;;;;6236971;23;20139;-43
2022/04/29 04:35:54;;;;;;;21.35;11.07;;;;;;;;;;6238440;23;20009;-43
2022/04/29 04:38:19;;;;;;;21.63;10.70;;;;;;;;;;6237120;23;20016;-43
2022/04/29 04:40:45;;;;;;;17.48;10.48;;;;;;;;;;6237020;23;20012;-42
2022/04/29 04:43:10;;;;;;;20.58;11.32;;;;;;;;;;6238678;23;20028;-42
2022/04/29 04:45:35;;;;;;;18.27;10.70;;;;;;;;;;6235405;23;20082;-44
2022/04/29 04:48:00;;;;;;;21.92;11.43;;;;;;;;;;6239090;23;20038;-43
2022/04/29 04:50:26;;;;;;;25.15;11.85;;;;;;;;;;6235446;23;20013;-42
2022/04/29 04:52:51;;;;;;;27.30;11.30;;;;;;;;;;6238357;23;20335;-45
2022/04/29 04:55:17;;;;;;;21.40;10.23;;;;;;;;;;6236114;23;20012;-43
2022/04/29 04:57:42;;;;;;;21.00;10.80;;;;;;;;;;6237732;23;20013;-43
2022/04/29 05:00:08;;;;;;;23.95;11.15;;;;;;;;;;6237209;23;20040;-43
2022/04/29 05:02:33;;;;;;;18.05;10.52;;;;;;;;;;6237011;23;20023;-43
2022/04/29 05:04:59;;;;;;;22.77;13.60;;;;;;;;;;6237773;23;20042;-42
2022/04/29 05:07:24;;;;;;;22.10;12.70;;;;;;;;;;6237125;23;20028;-47
2022/04/29 05:09:49;;;;;;;22.13;11.50;;;;;;;;;;6237442;23;20012;-43
2022/04/29 05:12:14;;;;;;;22.13;10.13;;;;;;;;;;6235811;23;20031;-45
2022/04/29 05:14:40;;;;;;;25.45;11.98;;;;;;;;;;6237120;23;20012;-44
2022/04/29 05:17:05;;;;;;;36.25;12.82;;;;;;;;;;6237768;23;20068;-42
2022/04/29 05:19:31;;;;;;;28.27;13.23;;;;;;;;;;6236559;23;20067;-45
2022/04/29 05:21:56;;;;;;;25.63;12.25;;;;;;;;;;6237141;23;20012;-43
2022/04/29 05:24:21;;;;;;;25.27;12.05;;;;;;;;;;6237724;23;20017;-44
2022/04/29 05:26:46;;;;;;;23.33;12.30;;;;;;;;;;6236193;23;20020;-42
2022/04/29 05:29:12;;;;;;;22.25;12.18;;;;;;;;;;6238072;23;20027;-43
2022/04/29 05:31:37;;;;;;;31.67;12.07;;;;;;;;;;6235256;23;20051;-42
2022/04/29 05:34:04;;;;;;;27.17;12.55;;;;;;;;;;6211080;23;20023;-43
2022/04/29 05:36:29;;;;;;;27.55;13.20;;;;;;;;;;6236803;23;20013;-42
2022/04/29 05:44:22;;;;;;;24.60;11.77;;;;;;;;;;6235767;23;20018;-45
2022/04/29 05:46:47;;;;;;;32.38;13.10;;;;;;;;;;6237332;23;20035;-45
2022/04/29 05:49:12;;;;;;;22.08;12.43;;;;;;;;;;6237100;23;20378;-45
2022/04/29 05:51:38;;;;;;;34.65;14.05;;;;;;;;;;6235430;23;20004;-43
2022/04/29 05:54:03;;;;;;;31.35;14.93;;;;;;;;;;6236864;23;20019;-43
2022/04/29 05:56:28;;;;;;;26.52;13.45;;;;;;;;;;6235987;23;20023;-43
2022/04/29 05:58:54;;;;;;;29.35;13.70;;;;;;;;;;6209671;23;20371;-43
2022/04/29 06:01:19;;;;;;;26.52;13.38;;;;;;;;;;6208733;23;20028;-45
2022/04/29 06:03:44;;;;;;;34.47;13.55;;;;;;;;;;6236381;23;20102;-43
2022/04/29 06:06:10;;;;;;;33.97;14.20;;;;;;;;;;6237314;23;20028;-45
2022/04/29 06:08:35;;;;;;;24.77;12.93;;;;;;;;;;6236213;23;20012;-43
2022/04/29 06:11:00;;;;;;;21.88;13.05;;;;;;;;;;6236550;23;20004;-45
2022/04/29 06:13:26;;;;;;;40.20;13.77;;;;;;;;;;6236227;23;20016;-43
2022/04/29 06:15:51;;;;;;;24.63;12.82;;;;;;;;;;6237269;23;20278;-44
2022/04/29 06:18:16;;;;;;;29.20;13.65;;;;;;;;;;6208502;23;20016;-43
2022/04/29 06:20:42;;;;;;;28.17;14.35;;;;;;;;;;6236973;23;20008;-43
2022/04/29 06:23:07;;;;;;;22.60;12.88;;;;;;;;;;6235936;23;20896;-43
2022/04/29 06:25:32;;;;;;;27.02;13.48;;;;;;;;;;6235599;23;20043;-44
2022/04/29 06:27:58;;;;;;;30.27;12.55;;;;;;;;;;6234580;23;20076;-45
2022/04/29 06:30:23;;;;;;;27.23;13.35;;;;;;;;;;6233280;23;20576;-43
2022/04/29 06:32:52;;;;;;;25.05;12.43;;;;;;;;;;6236439;23;20606;-44
2022/04/29 06:35:19;;;;;;;26.38;13.02;;;;;;;;;;6233513;23;20265;-44
2022/04/29 06:37:44;;;;;;;26.95;14.15;;;;;;;;;;6238569;23;20052;-44
2022/04/29 06:40:09;;;;;;;28.98;13.45;;;;;;;;;;6235538;23;20016;-44
2022/04/29 06:42:45;;;;;;;25.50;14.70;;;;;;;;;;6237218;23;20008;-45
2022/04/29 06:45:10;;;;;;;23.77;13.23;;;;;;;;;;6232381;23;20012;-43
2022/04/29 06:47:35;;;;;;;36.65;14.68;;;;;;;;;;6236175;23;20073;-42
2022/04/29 06:50:01;;;;;;;25.88;14.07;;;;;;;;;;6234035;23;20008;-43
2022/04/29 06:52:26;;;;;;;25.02;13.13;;;;;;;;;;6236505;23;20008;-44
2022/04/29 06:54:51;;;;;;;22.75;12.80;;;;;;;;;;6209290;23;20036;-43
2022/04/29 06:57:16;;;;;;;26.38;14.35;;;;;;;;;;6209955;23;20012;-44
2022/04/29 06:59:42;;;;;;;27.65;12.75;;;;;;;;;;6234527;23;20030;-42
2022/04/29 07:02:07;;;;;;;24.52;13.60;;;;;;;;;;6237470;23;20031;-43
2022/04/29 07:04:32;;;;;;;27.13;13.00;;;;;;;;;;6234537;23;20019;-43
2022/04/29 07:06:58;;;;;;;27.02;14.15;;;;;;;;;;6236709;23;20020;-44
2022/04/29 07:09:24;;;;;;;24.33;12.10;;;;;;;;;;6233800;23;20020;-43
2022/04/29 07:11:49;;;;;;;24.50;12.40;;;;;;;;;;6235976;23;20015;-44
2022/04/29 07:14:14;;;;;;;28.05;14.38;;;;;;;;;;6236578;23;20019;-43
2022/04/29 07:16:40;;;;;;;27.65;13.95;;;;;;;;;;6238084;23;20066;-43
2022/04/29 07:19:05;;;;;;;23.58;13.77;;;;;;;;;;6239059;23;20071;-44
2022/04/29 07:21:31;;;;;;;29.23;14.02;;;;;;;;;;6237130;23;20012;-47
2022/04/29 07:23:56;;;;;;;21.70;12.20;;;;;;;;;;6212995;23;20107;-45
2022/04/29 07:26:22;;;;;;;21.27;12.18;;;;;;;;;;6236947;23;20024;-43
2022/04/29 07:28:47;;;;;;;27.13;12.57;;;;;;;;;;6233886;23;20030;-43
2022/04/29 07:31:12;;;;;;;23.15;12.55;;;;;;;;;;6238865;23;20027;-43
2022/04/29 07:33:38;;;;;;;27.65;13.43;;;;;;;;;;6206196;23;20035;-44
2022/04/29 07:41:46;;;;;;;27.95;12.82;;;;;;;;;;6238291;23;20020;-44
2022/04/29 07:44:12;;;;;;;24.50;11.20;;;;;;;;;;6235275;23;20004;-43
2022/04/29 07:46:38;;;;;;;23.90;11.77;;;;;;;;;;6237829;23;20012;-43
2022/04/29 07:49:03;;;;;;;26.10;10.85;;;;;;;;;;6236839;23;20016;-43
2022/04/29 07:51:29;;;;;;;26.05;12.45;;;;;;;;;;6237780;23;20039;-44
2022/04/29 07:53:54;;;;;;;26.13;13.07;;;;;;;;;;6236970;23;20035;-42
2022/04/29 07:56:19;;;;;;;24.98;11.75;;;;;;;;;;6238250;23;20072;-43
2022/04/29 07:58:44;;;;;;;24.63;13.35;;;;;;;;;;6237322;23;20300;-45
2022/04/29 08:01:10;;;;;;;26.70;12.95;;;;;;;;;;6236083;23;20016;-43
2022/04/29 08:03:36;;;;;;;27.15;13.13;;;;;;;;;;6236307;23;20016;-43
2022/04/29 08:06:02;;;;;;;22.02;12.77;;;;;;;;;;6235520;23;20023;-42
2022/04/29 08:08:28;;;;;;;30.60;14.35;;;;;;;;;;6232288;23;20091;-42
2022/04/29 08:10:53;;;;;;;24.55;15.50;;;;;;;;;;6205168;23;20081;-44
2022/04/29 08:13:18;;;;;;;33.78;14.63;;;;;;;;;;6233412;23;20008;-45
2022/04/29 08:15:45;;;;;;;24.67;13.93;;;;;;;;;;6234676;23;20757;-42
2022/04/29 08:18:12;;;;;;;32.05;14.82;;;;;;;;;;6232841;23;20015;-44
2022/04/29 08:20:37;;;;;;;26.45;12.95;;;;;;;;;;6232908;23;20115;-44
2022/04/29 08:23:03;;;;;;;30.30;13.77;;;;;;;;;;6233564;23;20008;-44
2022/04/29 08:25:28;;;;;;;28.27;12.70;;;;;;;;;;6230938;23;20016;-43
2022/04/29 08:27:54;;;;;;;27.65;12.98;;;;;;;;;;6225649;23;20024;-43
2022/04/29 08:30:19;;;;;;;27.10;12.23;;;;;;;;;;6233051;23;20008;-43
2022/04/29 08:32:45;;;;;;;30.02;14.93;;;;;;;;;;6207054;23;20016;-44
2022/04/29 08:35:11;;;;;;;29.27;14.27;;;;;;;;;;6237835;23;20004;-43
2022/04/29 08:37:37;;;;;;;24.67;13.25;;;;;;;;;;6236990;23;20103;-45
2022/04/29 08:40:03;;;;;;;22.00;12.20;;;;;;;;;;6238541;23;20353;-44
2022/04/29 08:42:29;;;;;;;17.92;10.52;;;;;;;;;;6236464;23;20016;-43
2022/04/29 08:44:54;;;;;;;20.05;9.98;;;;;;;;;;6237913;23;20012;-43
2022/04/29 08:47:20;;;;;;;26.63;10.02;;;;;;;;;;6220281;23;20047;-43
2022/04/29 08:49:46;;;;;;;15.50;9.85;;;;;;;;;;6231373;23;20004;-43
2022/04/29 08:52:13;;;;;;;20.70;10.45;;;;;;;;;;6230211;23;20023;-43
2022/04/29 09:00:10;;;;;;;25.50;11.65;;;;;;;;;;6237038;23;20027;-44
2022/04/29 09:02:39;;;;;;;16.23;10.35;;;;;;;;;;6235194;23;20008;-45
2022/04/29 09:05:06;;;;;;;16.77;9.38;;;;;;;;;;6236449;23;20089;-47
2022/04/29 09:07:51;;;;;;;14.18;8.25;;;;;;;;;;6234649;23;20032;-43
2022/04/29 09:10:16;;;;;;;18.48;9.65;;;;;;;;;;6234351;23;20274;-43
2022/04/29 09:12:42;;;;;;;18.48;9.40;;;;;;;;;;6238735;23;20008;-44
2022/04/29 09:15:11;;;;;;;14.98;8.43;;;;;;;;;;6236985;23;20008;-43
2022/04/29 09:17:39;;;;;;;19.15;9.70;;;;;;;;;;6237439;23;20016;-44
2022/04/29 09:20:12;;;;;;;17.13;9.38;;;;;;;;;;6232838;23;20074;-43
2022/04/29 09:22:38;;;;;;;16.00;8.68;;;;;;;;;;6235659;23;20012;-42
2022/04/29 09:25:04;;;;;;;19.77;7.80;;;;;;;;;;6237105;23;20572;-43
2022/04/29 09:27:29;;;;;;;24.48;9.27;;;;;;;;;;6235720;23;20230;-43
2022/04/29 09:29:59;;;;;;;17.08;8.98;;;;;;;;;;6238024;23;20366;-43
2022/04/29 09:32:24;;;;;;;14.32;7.13;;;;;;;;;;6236117;23;20047;-45
2022/04/29 09:34:53;;;;;;;21.92;8.38;;;;;;;;;;6237703;23;20008;-44
2022/04/29 09:37:22;;;;;;;22.42;8.57;;;;;;;;;;6208853;23;20013;-44
2022/04/29 09:39:55;;;;;;;20.98;8.20;;;;;;;;;;6238101;23;20012;-44
2022/04/29 09:42:20;;;;;;;12.65;8.40;;;;;;;;;;6237568;23;20020;-44
2022/04/29 09:44:46;;;;;;;16.92;8.10;;;;;;;;;;6236324;23;20038;-45
2022/04/29 09:47:12;;;;;;;14.15;8.52;;;;;;;;;;6197933;23;20115;-44
2022/04/29 09:49:37;;;;;;;17.55;7.85;;;;;;;;;;6234162;23;20280;-43
2022/04/29 09:52:03;;;;;;;20.63;7.70;;;;;;;;;;6238156;23;20058;-43
2022/04/29 09:54:29;;;;;;;16.73;7.35;;;;;;;;;;6234549;23;20016;-47
2022/04/29 09:57:08;;;;;;;16.60;6.95;;;;;;;;;;6238053;23;20484;-45
2022/04/29 09:59:35;;;;;;;12.02;7.72;;;;;;;;;;6235024;23;20016;-43
2022/04/29 10:02:00;;;;;;;12.07;7.38;;;;;;;;;;6238118;23;20087;-43
2022/04/29 10:04:29;;;;;;;12.15;6.40;;;;;;;;;;6235048;23;20447;-46
2022/04/29 10:06:54;;;;;;;19.98;7.30;;;;;;;;;;6237322;23;20028;-43
2022/04/29 10:09:21;;;;;;;16.70;7.53;;;;;;;;;;6207634;23;20012;-44
2022/04/29 10:11:46;;;;;;;12.40;6.55;;;;;;;;;;6236675;23;20148;-45
2022/04/29 10:14:14;;;;;;;14.15;6.78;;;;;;;;;;6237227;23;20015;-43
2022/04/29 10:16:39;;;;;;;16.10;6.63;;;;;;;;;;6236096;23;20023;-45
2022/04/29 10:21:50;;;;;;;19.63;7.15;;;;;;;;;;6235133;23;20051;-44
2022/04/29 10:24:16;;;;;;;18.08;8.65;;;;;;;;;;6237015;23;20012;-44
2022/04/29 10:26:41;;;;;;;15.50;6.75;;;;;;;;;;6235849;23;20261;-43
2022/04/29 10:29:07;;;;;;;12.80;6.30;;;;;;;;;;6237724;23;20528;-43
2022/04/29 10:31:32;;;;;;;15.80;8.07;;;;;;;;;;6234953;23;20009;-45
2022/04/29 10:34:16;;;;;;;19.42;7.80;;;;;;;;;;6237247;23;20038;-44
2022/04/29 10:36:48;;;;;;;14.25;7.20;;;;;;;;;;6236076;23;20015;-43
2022/04/29 10:39:17;;;;;;;19.15;7.95;;;;;;;;;;6235897;23;20023;-46
2022/04/29 10:41:57;;;;;;;16.15;7.22;;;;;;;;;;6236905;23;20004;-43
2022/04/29 10:44:22;;;;;;;20.20;8.63;;;;;;;;;;6235883;23;20142;-44
2022/04/29 10:46:49;;;;;;;14.02;7.03;;;;;;;;;;6236978;23;20201;-43
2022/04/29 10:49:20;;;;;;;15.95;7.95;;;;;;;;;;6235554;23;20021;-44
2022/04/29 10:51:49;;;;;;;17.88;8.38;;;;;;;;;;6231902;23;20572;-43
2022/04/29 10:54:15;;;;;;;11.30;7.55;;;;;;;;;;6235410;23;20347;-45
2022/04/29 10:56:40;;;;;;;23.25;8.52;;;;;;;;;;6234241;23;20097;-43
2022/04/29 10:59:15;;;;;;;17.73;8.35;;;;;;;;;;6235974;23;20035;-44
2022/04/29 11:02:13;;;;;;;21.13;8.45;;;;;;;;;;6236361;23;20074;-44
2022/04/29 11:04:39;;;;;;;20.48;7.47;;;;;;;;;;6212931;23;20012;-44
2022/04/29 11:07:04;;;;;;;21.05;9.93;;;;;;;;;;6236018;23;20070;-43
2022/04/29 11:09:30;;;;;;;13.27;8.07;;;;;;;;;;6235450;23;20295;-45
2022/04/29 11:11:56;;;;;;;12.60;8.07;;;;;;;;;;6237443;23;20023;-44
2022/04/29 11:14:21;;;;;;;13.63;7.57;;;;;;;;;;6234812;23;20023;-44
2022/04/29 11:16:53;;;;;;;15.80;7.93;;;;;;;;;;6236248;23;20012;-46
2022/04/29 11:19:27;;;;;;;16.33;8.32;;;;;;;;;;6237013;23;20107;-44
2022/04/29 11:24:44;;;;;;;15.05;7.18;;;;;;;;;;6235312;23;20019;-44
2022/04/29 11:27:09;;;;;;;11.40;6.65;;;;;;;;;;6236475;23;20012;-46
2022/04/29 11:29:44;;;;;;;14.30;8.63;;;;;;;;;;6234260;23;20027;-43
2022/04/29 11:32:10;;;;;;;21.23;8.10;;;;;;;;;;6210038;23;20008;-47
2022/04/29 11:34:49;;;;;;;19.10;7.93;;;;;;;;;;6235006;23;20035;-43
2022/04/29 11:37:14;;;;;;;15.52;7.57;;;;;;;;;;6235865;23;20239;-44
2022/04/29 11:39:40;;;;;;;15.88;7.78;;;;;;;;;;6234183;23;20099;-45
2022/04/29 11:42:05;;;;;;;13.15;6.95;;;;;;;;;;6236464;23;20012;-44
2022/04/29 11:44:42;;;;;;;11.32;7.43;;;;;;;;;;6235296;23;20012;-44
2022/04/29 11:47:07;;;;;;;13.13;7.57;;;;;;;;;;6235630;23;20072;-44
2022/04/29 11:49:33;;;;;;;21.75;8.57;;;;;;;;;;6234840;23;20031;-42
2022/04/29 11:52:16;;;;;;;12.55;7.53;;;;;;;;;;6236550;23;20004;-44
2022/04/29 11:54:51;;;;;;;20.10;7.72;;;;;;;;;;6235324;23;20590;-43
2022/04/29 11:57:17;;;;;;;20.63;8.27;;;;;;;;;;6234384;23;20699;-44
2022/04/29 11:59:43;;;;;;;18.70;8.18;;;;;;;;;;6235798;23;20039;-46
2022/04/29 12:02:09;;;;;;;18.30;7.78;;;;;;;;;;6237938;23;20019;-44
2022/04/29 12:04:34;;;;;;;22.17;8.80;;;;;;;;;;6237651;23;20159;-43
2022/04/29 12:07:00;;;;;;;14.10;7.85;;;;;;;;;;6237933;23;20028;-44
2022/04/29 12:09:32;;;;;;;12.63;7.22;;;;;;;;;;6237218;23;20085;-42
2022/04/29 12:11:59;;;;;;;21.70;7.70;;;;;;;;;;6239775;23;20023;-42
2022/04/29 12:14:25;;;;;;;11.57;7.10;;;;;;;;;;6235305;23;20016;-43
2022/04/29 12:16:50;;;;;;;17.08;7.13;;;;;;;;;;6235670;23;20018;-45
2022/04/29 12:19:16;;;;;;;14.73;7.40;;;;;;;;;;6237307;23;20024;-45
2022/04/29 12:21:51;;;;;;;17.17;7.47;;;;;;;;;;6235596;23;20057;-45
2022/04/29 12:24:17;;;;;;;14.25;8.30;;;;;;;;;;6237545;23;20008;-43
2022/04/29 12:27:00;;;;;;;25.08;9.25;;;;;;;;;;6235342;23;20016;-50
2022/04/29 12:29:33;;;;;;;14.80;7.63;;;;;;;;;;6230272;23;20008;-42
2022/04/29 12:35:08;;;;;;;11.05;6.57;;;;;;;;;;6233315;23;20018;-47
2022/04/29 12:37:33;;;;;;;13.65;6.93;;;;;;;;;;6235231;23;20019;-45
2022/04/29 12:40:03;;;;;;;16.30;7.05;;;;;;;;;;6232290;23;20017;-43
2022/04/29 12:42:28;;;;;;;8.70;6.30;;;;;;;;;;6206508;23;20008;-44
2022/04/29 12:45:04;;;;;;;13.18;5.95;;;;;;;;;;6206039;23;20036;-45
2022/04/29 12:47:32;;;;;;;16.05;6.35;;;;;;;;;;6232418;23;20442;-42
2022/04/29 12:50:16;;;;;;;18.88;6.72;;;;;;;;;;6233966;23;20060;-42
2022/04/29 12:52:53;;;;;;;9.95;6.50;;;;;;;;;;6232229;23;20498;-45
2022/04/29 12:55:18;;;;;;;15.68;5.72;;;;;;;;;;6234067;23;20143;-43
2022/04/29 12:57:44;;;;;;;20.85;6.78;;;;;;;;;;6232550;23;20737;-43
2022/04/29 13:00:10;;;;;;;10.07;6.45;;;;;;;;;;6233572;23;20023;-42
2022/04/29 13:02:35;;;;;;;17.88;7.20;;;;;;;;;;6205105;23;20016;-43
2022/04/29 13:05:00;;;;;;;14.38;6.85;;;;;;;;;;6234158;23;20001;-42
2022/04/29 13:07:26;;;;;;;14.23;6.57;;;;;;;;;;6231041;23;20031;-43
2022/04/29 13:09:51;;;;;;;20.02;8.25;;;;;;;;;;6207698;23;20012;-43
2022/04/29 13:12:17;;;;;;;14.77;7.32;;;;;;;;;;6232520;23;20424;-43
2022/04/29 13:14:42;;;;;;;19.08;8.05;;;;;;;;;;6206574;23;20111;-44
2022/04/29 13:17:08;;;;;;;12.10;6.28;;;;;;;;;;6204469;23;20016;-45
2022/04/29 13:19:33;;;;;;;16.85;6.88;;;;;;;;;;6232997;23;20060;-42
2022/04/29 13:21:58;;;;;;;18.27;6.15;;;;;;;;;;6233183;23;20431;-44
2022/04/29 13:24:24;;;;;;;14.43;6.53;;;;;;;;;;6200433;23;20543;-43
2022/04/29 13:26:49;;;;;;;13.20;6.28;;;;;;;;;;6230263;23;20038;-43
2022/04/29 13:29:15;;;;;;;11.80;6.15;;;;;;;;;;6232281;23;20008;-44
2022/04/29 13:31:41;;;;;;;12.30;6.93;;;;;;;;;;6234688;23;20018;-45
2022/04/29 13:34:06;;;;;;;11.70;6.22;;;;;;;;;;6235547;23;20012;-43
2022/04/29 13:36:32;;;;;;;13.38;5.55;;;;;;;;;;6235041;23;20016;-45
2022/04/29 13:38:57;;;;;;;11.48;6.07;;;;;;;;;;6235753;23;20018;-42
2022/04/29 13:41:22;;;;;;;15.93;6.72;;;;;;;;;;6235981;23;20017;-43
2022/04/29 13:43:48;;;;;;;10.02;6.18;;;;;;;;;;6235929;23;20112;-42
2022/04/29 13:46:13;;;;;;;10.95;6.32;;;;;;;;;;6235854;23;20024;-45
2022/04/29 13:48:39;;;;;;;9.13;5.05;;;;;;;;;;6235937;23;20054;-44
2022/04/29 13:51:04;;;;;;;9.18;5.70;;;;;;;;;;6237380;23;20028;-43
2022/04/29 13:53:30;;;;;;;11.65;5.03;;;;;;;;;;6207628;23;20043;-44
2022/04/29 13:55:56;;;;;;;8.20;5.22;;;;;;;;;;6237248;23;20104;-43
2022/04/29 13:58:22;;;;;;;6.97;4.75;;;;;;;;;;6234915;23;20016;-43
2022/04/29 14:00:49;;;;;;;9.10;4.50;;;;;;;;;;6236845;23;20023;-45
2022/04/29 14:03:15;;;;;;;9.18;4.40;;;;;;;;;;6235896;23;20039;-44
2022/04/29 14:05:40;;;;;;;10.57;4.88;;;;;;;;;;6201838;23;20024;-42
2022/04/29 14:08:06;;;;;;;9.15;5.13;;;;;;;;;;6237067;23;20027;-43
2022/04/29 14:10:31;;;;;;;9.30;5.75;;;;;;;;;;6233836;23;20016;-43
2022/04/29 14:12:58;;;;;;;7.18;4.85;;;;;;;;;;6238070;23;20008;-44
2022/04/29 14:15:23;;;;;;;10.27;4.53;;;;;;;;;;6234740;23;20008;-44
2022/04/29 14:17:49;;;;;;;5.97;4.40;;;;;;;;;;6233742;23;20057;-43
2022/04/29 14:20:14;;;;;;;12.52;5.15;;;;;;;;;;6236134;23;20602;-44
2022/04/29 14:22:40;;;;;;;8.27;5.30;;;;;;;;;;6207827;23;20642;-43
2022/04/29 14:25:06;;;;;;;11.93;5.35;;;;;;;;;;6237224;23;20019;-44
2022/04/29 14:27:31;;;;;;;12.95;6.25;;;;;;;;;;6234465;23;20040;-45
2022/04/29 14:29:57;;;;;;;6.70;4.78;;;;;;;;;;6235866;23;20022;-44
2022/04/29 14:32:22;;;;;;;12.93;6.03;;;;;;;;;;6234341;23;20016;-44
2022/04/29 14:34:49;;;;;;;7.72;4.88;;;;;;;;;;6209987;23;20118;-46
2022/04/29 14:37:14;;;;;;;10.95;5.55;;;;;;;;;;6234040;23;20020;-43
2022/04/29 14:39:40;;;;;;;10.02;5.53;;;;;;;;;;6236825;23;20015;-43
2022/04/29 14:42:06;;;;;;;10.60;5.60;;;;;;;;;;6235727;23;20010;-44
2022/04/29 14:44:31;;;;;;;9.30;5.45;;;;;;;;;;6234912;23;20043;-44
2022/04/29 14:46:56;;;;;;;9.10;5.65;;;;;;;;;;6235241;23;20020;-42